KLM145S SKBO-EHAM
Flight info
| Callsign | KLM145S |
|---|---|
| Flight time | N/A |
| Altitude | 34000 |
| Route | OSUSU4R GIKPU UQ120 PADUD DCT DIBAM/N0486F350 DCT SELAN UG444 LIDOL UM597 PALAS DCT LERED/N0476F370 DCT MLLER/M081F370 M594 MCOOP DCT PIREX DCT BALOO DCT 37N060W 41N055W/M081F390 44N050W 50N040W 53N030W 55N020W DCT RESNO/N0454F390 DCT NETKI DCT NIBOG DCT REMSI DCT LAMSO |
| Aircraft | A333/H-SDE3GHIJ2J3J5M1RVWXY/LB2D1 |
Departure
| Time | N/A |
|---|---|
| Airport | El Dorado International Airport (SKBO) |
Arrival
| Time | 2026-04-28 07:57 |
|---|---|
| Airport | Amsterdam Airport Schiphol (EHAM) |
| Time | Latitude | Longitude | Altitude | Speed | Heading |
|---|---|---|---|---|---|
| 2026-04-28 06:43 | 54.74343 | -8.25676 | 36436 ft | 470 kts | 102° |
| 2026-04-28 06:44 | 54.72640 | -8.14750 | 36443 ft | 470 kts | 101° |
| 2026-04-28 06:44 | 54.70938 | -8.03908 | 36439 ft | 469 kts | 101° |
| 2026-04-28 06:45 | 54.69221 | -7.93036 | 36443 ft | 468 kts | 101° |
| 2026-04-28 06:45 | 54.67498 | -7.82184 | 36442 ft | 468 kts | 101° |
| 2026-04-28 06:46 | 54.65763 | -7.71335 | 36445 ft | 468 kts | 101° |
| 2026-04-28 06:46 | 54.64017 | -7.60494 | 36443 ft | 468 kts | 101° |
| 2026-04-28 06:47 | 54.62261 | -7.49660 | 36450 ft | 468 kts | 101° |
| 2026-04-28 06:47 | 54.60513 | -7.38945 | 36451 ft | 467 kts | 101° |
| 2026-04-28 06:48 | 54.58745 | -7.28162 | 36456 ft | 467 kts | 101° |
| 2026-04-28 06:48 | 54.56968 | -7.17396 | 36455 ft | 467 kts | 101° |
| 2026-04-28 06:49 | 54.55183 | -7.06649 | 36449 ft | 467 kts | 101° |
| 2026-04-28 06:49 | 54.53385 | -6.95897 | 36470 ft | 466 kts | 101° |
| 2026-04-28 06:50 | 54.51594 | -6.85256 | 36458 ft | 464 kts | 101° |
| 2026-04-28 06:50 | 54.49787 | -6.74573 | 36457 ft | 464 kts | 101° |
| 2026-04-28 06:51 | 54.47970 | -6.63904 | 36457 ft | 464 kts | 101° |
| 2026-04-28 06:51 | 54.46146 | -6.53249 | 36457 ft | 464 kts | 101° |
| 2026-04-28 06:52 | 54.44312 | -6.42610 | 36470 ft | 464 kts | 101° |
| 2026-04-28 06:52 | 54.42469 | -6.31982 | 36458 ft | 463 kts | 101° |
| 2026-04-28 06:53 | 54.40634 | -6.21461 | 36453 ft | 462 kts | 101° |
| 2026-04-28 06:53 | 54.38781 | -6.10896 | 36459 ft | 462 kts | 101° |
| 2026-04-28 06:54 | 54.36916 | -6.00323 | 36456 ft | 462 kts | 101° |
| 2026-04-28 06:54 | 54.35043 | -5.89772 | 36463 ft | 463 kts | 101° |
| 2026-04-28 06:55 | 54.33160 | -5.79222 | 36461 ft | 462 kts | 101° |
| 2026-04-28 06:55 | 54.31269 | -5.68691 | 36454 ft | 462 kts | 101° |
| 2026-04-28 06:56 | 54.29371 | -5.58181 | 36458 ft | 462 kts | 101° |
| 2026-04-28 06:56 | 54.27463 | -5.47679 | 36454 ft | 462 kts | 101° |
| 2026-04-28 06:57 | 54.25559 | -5.37255 | 36451 ft | 462 kts | 102° |
| 2026-04-28 06:57 | 54.23633 | -5.26769 | 36458 ft | 462 kts | 101° |
| 2026-04-28 06:58 | 54.21699 | -5.16307 | 36450 ft | 460 kts | 101° |
| 2026-04-28 06:58 | 54.19762 | -5.05878 | 36449 ft | 460 kts | 102° |
| 2026-04-28 06:59 | 54.17816 | -4.95459 | 36449 ft | 460 kts | 102° |
| 2026-04-28 06:59 | 54.15859 | -4.85038 | 36439 ft | 461 kts | 102° |
| 2026-04-28 07:00 | 54.13905 | -4.74695 | 36466 ft | 459 kts | 101° |
| 2026-04-28 07:00 | 54.11937 | -4.64338 | 36427 ft | 458 kts | 101° |
| 2026-04-28 07:01 | 54.09965 | -4.54012 | 36428 ft | 458 kts | 101° |
| 2026-04-28 07:01 | 54.07987 | -4.43706 | 36427 ft | 458 kts | 102° |
| 2026-04-28 07:02 | 54.05996 | -4.33391 | 36428 ft | 458 kts | 102° |
| 2026-04-28 07:02 | 54.03998 | -4.23097 | 36429 ft | 458 kts | 102° |
| 2026-04-28 07:03 | 54.01991 | -4.12811 | 36437 ft | 457 kts | 101° |
| 2026-04-28 07:03 | 53.99994 | -4.02634 | 36437 ft | 456 kts | 101° |
| 2026-04-28 07:04 | 53.97979 | -3.92416 | 36435 ft | 456 kts | 102° |
| 2026-04-28 07:04 | 53.95990 | -3.82192 | 36433 ft | 454 kts | 99° |
| 2026-04-28 07:05 | 53.94421 | -3.71860 | 36432 ft | 452 kts | 97° |
| 2026-04-28 07:05 | 53.92899 | -3.61496 | 36432 ft | 451 kts | 97° |
| 2026-04-28 07:06 | 53.91365 | -3.51181 | 36429 ft | 451 kts | 97° |
| 2026-04-28 07:06 | 53.89825 | -3.40925 | 36431 ft | 451 kts | 97° |
| 2026-04-28 07:07 | 53.88265 | -3.30610 | 36426 ft | 451 kts | 97° |
| 2026-04-28 07:07 | 53.86697 | -3.20312 | 36427 ft | 451 kts | 97° |
| 2026-04-28 07:08 | 53.85119 | -3.10013 | 36438 ft | 451 kts | 98° |
| 2026-04-28 07:08 | 53.83536 | -2.99752 | 36427 ft | 450 kts | 98° |
| 2026-04-28 07:09 | 53.81946 | -2.89499 | 36427 ft | 450 kts | 98° |
| 2026-04-28 07:09 | 53.80347 | -2.79261 | 36417 ft | 450 kts | 98° |
| 2026-04-28 07:10 | 53.78747 | -2.69074 | 36411 ft | 450 kts | 98° |
| 2026-04-28 07:10 | 53.77131 | -2.58855 | 36442 ft | 449 kts | 98° |
| 2026-04-28 07:11 | 53.75509 | -2.48665 | 36412 ft | 448 kts | 98° |
| 2026-04-28 07:11 | 53.73886 | -2.38521 | 36408 ft | 447 kts | 98° |
| 2026-04-28 07:12 | 53.72254 | -2.28382 | 36417 ft | 447 kts | 98° |
| 2026-04-28 07:12 | 53.70610 | -2.18229 | 36408 ft | 448 kts | 98° |
| 2026-04-28 07:13 | 53.68955 | -2.08070 | 36405 ft | 449 kts | 99° |
| 2026-04-28 07:13 | 53.67291 | -1.97922 | 36410 ft | 448 kts | 99° |
| 2026-04-28 07:14 | 53.65629 | -1.87846 | 36413 ft | 448 kts | 99° |
| 2026-04-28 07:14 | 53.63950 | -1.77720 | 36421 ft | 448 kts | 99° |
| 2026-04-28 07:15 | 53.62266 | -1.67625 | 36418 ft | 448 kts | 99° |
| 2026-04-28 07:15 | 53.60580 | -1.57579 | 36419 ft | 448 kts | 99° |
| 2026-04-28 07:16 | 53.58873 | -1.47464 | 36419 ft | 451 kts | 99° |
| 2026-04-28 07:16 | 53.57147 | -1.37290 | 36412 ft | 452 kts | 99° |
| 2026-04-28 07:17 | 53.55408 | -1.27108 | 36410 ft | 452 kts | 100° |
| 2026-04-28 07:17 | 53.53663 | -1.16953 | 36403 ft | 452 kts | 100° |
| 2026-04-28 07:18 | 53.52206 | -1.08508 | 36403 ft | 452 kts | 100° |
| 2026-04-28 07:18 | 53.50156 | -0.96699 | 36404 ft | 453 kts | 100° |
| 2026-04-28 07:19 | 53.48377 | -0.86516 | 36405 ft | 454 kts | 100° |
| 2026-04-28 07:19 | 53.46892 | -0.78060 | 36405 ft | 454 kts | 101° |
| 2026-04-28 07:20 | 53.45096 | -0.67893 | 36412 ft | 454 kts | 101° |
| 2026-04-28 07:20 | 53.43294 | -0.57740 | 36387 ft | 454 kts | 101° |
| 2026-04-28 07:21 | 53.41483 | -0.47595 | 36383 ft | 454 kts | 101° |
| 2026-04-28 07:21 | 53.39661 | -0.37445 | 36384 ft | 454 kts | 101° |
| 2026-04-28 07:22 | 53.36910 | -0.22231 | 36383 ft | 454 kts | 101° |
| 2026-04-28 07:22 | 53.35069 | -0.12113 | 36376 ft | 454 kts | 101° |
| 2026-04-28 07:23 | 53.33218 | -0.02002 | 36376 ft | 454 kts | 101° |
| 2026-04-28 07:23 | 53.31368 | 0.08053 | 36385 ft | 456 kts | 102° |
| 2026-04-28 07:24 | 53.29489 | 0.18205 | 36382 ft | 456 kts | 102° |
| 2026-04-28 07:24 | 53.27603 | 0.28339 | 36389 ft | 456 kts | 102° |
| 2026-04-28 07:25 | 53.25718 | 0.38417 | 36389 ft | 456 kts | 102° |
| 2026-04-28 07:25 | 53.23812 | 0.48553 | 36382 ft | 459 kts | 102° |
| 2026-04-28 07:26 | 53.21887 | 0.58738 | 36374 ft | 461 kts | 103° |
| 2026-04-28 07:26 | 53.20927 | 0.63785 | 36099 ft | 452 kts | 103° |
| 2026-04-28 07:26 | 53.19976 | 0.68767 | 35621 ft | 448 kts | 103° |
| 2026-04-28 07:27 | 53.19032 | 0.73708 | 35148 ft | 444 kts | 102° |
| 2026-04-28 07:27 | 53.18098 | 0.78586 | 34679 ft | 439 kts | 102° |
| 2026-04-28 07:27 | 53.17182 | 0.83357 | 34193 ft | 435 kts | 102° |
| 2026-04-28 07:27 | 53.16262 | 0.88137 | 33647 ft | 430 kts | 102° |
| 2026-04-28 07:28 | 53.15351 | 0.92859 | 33104 ft | 426 kts | 101° |
| 2026-04-28 07:28 | 53.14445 | 0.97544 | 32564 ft | 421 kts | 101° |
| 2026-04-28 07:28 | 53.13551 | 1.02158 | 32086 ft | 417 kts | 101° |
| 2026-04-28 07:28 | 53.12661 | 1.06749 | 31569 ft | 416 kts | 101° |
| 2026-04-28 07:29 | 53.11767 | 1.11345 | 31072 ft | 416 kts | 101° |
| 2026-04-28 07:29 | 53.10875 | 1.15919 | 30569 ft | 415 kts | 101° |
| 2026-04-28 07:29 | 53.09995 | 1.20424 | 30036 ft | 414 kts | 101° |
| 2026-04-28 07:29 | 53.09104 | 1.24966 | 29459 ft | 412 kts | 101° |
| 2026-04-28 07:30 | 53.08218 | 1.29474 | 28893 ft | 408 kts | 101° |
| 2026-04-28 07:30 | 53.07337 | 1.33940 | 28344 ft | 404 kts | 101° |
| 2026-04-28 07:30 | 53.06466 | 1.38352 | 27805 ft | 400 kts | 102° |
| 2026-04-28 07:30 | 53.05601 | 1.42721 | 27275 ft | 396 kts | 102° |
| 2026-04-28 07:31 | 53.04742 | 1.47053 | 26756 ft | 394 kts | 102° |
| 2026-04-28 07:31 | 53.03884 | 1.51373 | 26246 ft | 392 kts | 102° |
| 2026-04-28 07:31 | 53.03032 | 1.55657 | 25758 ft | 390 kts | 103° |
| 2026-04-28 07:31 | 53.02179 | 1.59934 | 25256 ft | 389 kts | 103° |
| 2026-04-28 07:32 | 53.01326 | 1.64198 | 24773 ft | 388 kts | 104° |
| 2026-04-28 07:32 | 53.00476 | 1.68437 | 24299 ft | 386 kts | 104° |
| 2026-04-28 07:32 | 52.99639 | 1.72602 | 23819 ft | 384 kts | 104° |
| 2026-04-28 07:32 | 52.98794 | 1.76797 | 23289 ft | 383 kts | 104° |
| 2026-04-28 07:33 | 52.97948 | 1.80987 | 22737 ft | 382 kts | 104° |
| 2026-04-28 07:33 | 52.97102 | 1.85167 | 22186 ft | 380 kts | 105° |
| 2026-04-28 07:33 | 52.96262 | 1.89314 | 21648 ft | 377 kts | 105° |
| 2026-04-28 07:33 | 52.95427 | 1.93422 | 21148 ft | 374 kts | 105° |
| 2026-04-28 07:34 | 52.94595 | 1.97505 | 20636 ft | 371 kts | 105° |
| 2026-04-28 07:34 | 52.93773 | 2.01538 | 20385 ft | 368 kts | 105° |
| 2026-04-28 07:34 | 52.92952 | 2.05559 | 20346 ft | 369 kts | 105° |
| 2026-04-28 07:34 | 52.92128 | 2.09586 | 20346 ft | 369 kts | 105° |
| 2026-04-28 07:35 | 52.91301 | 2.13620 | 20346 ft | 369 kts | 105° |
| 2026-04-28 07:35 | 52.90474 | 2.17643 | 20346 ft | 369 kts | 105° |
| 2026-04-28 07:35 | 52.89647 | 2.21655 | 20345 ft | 365 kts | 105° |
| 2026-04-28 07:35 | 52.88843 | 2.25544 | 20344 ft | 360 kts | 105° |
| 2026-04-28 07:36 | 52.88029 | 2.29484 | 20345 ft | 365 kts | 105° |
| 2026-04-28 07:36 | 52.87201 | 2.33486 | 20343 ft | 369 kts | 105° |
| 2026-04-28 07:36 | 52.86366 | 2.37508 | 20344 ft | 369 kts | 105° |
| 2026-04-28 07:36 | 52.85530 | 2.41527 | 20343 ft | 369 kts | 105° |
| 2026-04-28 07:37 | 52.84692 | 2.45545 | 20342 ft | 369 kts | 105° |
| 2026-04-28 07:37 | 52.83852 | 2.49565 | 20341 ft | 369 kts | 105° |
| 2026-04-28 07:37 | 52.83012 | 2.53578 | 20337 ft | 369 kts | 106° |
| 2026-04-28 07:37 | 52.82171 | 2.57588 | 20336 ft | 369 kts | 106° |
| 2026-04-28 07:38 | 52.81328 | 2.61600 | 20335 ft | 369 kts | 106° |
| 2026-04-28 07:38 | 52.80483 | 2.65612 | 20333 ft | 369 kts | 107° |
| 2026-04-28 07:38 | 52.79635 | 2.69626 | 20333 ft | 369 kts | 107° |
| 2026-04-28 07:38 | 52.78789 | 2.73631 | 20333 ft | 369 kts | 107° |
| 2026-04-28 07:39 | 52.77950 | 2.77589 | 20332 ft | 369 kts | 107° |
| 2026-04-28 07:39 | 52.77100 | 2.81595 | 20333 ft | 369 kts | 107° |
| 2026-04-28 07:39 | 52.76248 | 2.85599 | 20327 ft | 369 kts | 107° |
| 2026-04-28 07:39 | 52.75396 | 2.89598 | 20327 ft | 369 kts | 107° |
| 2026-04-28 07:40 | 52.74542 | 2.93595 | 20327 ft | 369 kts | 107° |
| 2026-04-28 07:40 | 52.73677 | 2.97593 | 20327 ft | 370 kts | 108° |
| 2026-04-28 07:40 | 52.72582 | 3.01449 | 20335 ft | 372 kts | 115° |
| 2026-04-28 07:40 | 52.71329 | 3.05127 | 20241 ft | 361 kts | 117° |
| 2026-04-28 07:41 | 52.70081 | 3.08667 | 19834 ft | 354 kts | 117° |
| 2026-04-28 07:41 | 52.68848 | 3.12158 | 19344 ft | 350 kts | 117° |
| 2026-04-28 07:41 | 52.67629 | 3.15614 | 18865 ft | 347 kts | 116° |
| 2026-04-28 07:41 | 52.66419 | 3.19045 | 18357 ft | 344 kts | 116° |
| 2026-04-28 07:42 | 52.65228 | 3.22424 | 17802 ft | 340 kts | 116° |
| 2026-04-28 07:42 | 52.64043 | 3.25783 | 17267 ft | 337 kts | 117° |
| 2026-04-28 07:42 | 52.62884 | 3.29065 | 16774 ft | 333 kts | 117° |
| 2026-04-28 07:42 | 52.61727 | 3.32334 | 16371 ft | 327 kts | 117° |
| 2026-04-28 07:43 | 52.60594 | 3.35535 | 15989 ft | 320 kts | 117° |
| 2026-04-28 07:43 | 52.59483 | 3.38681 | 15609 ft | 314 kts | 116° |
| 2026-04-28 07:43 | 52.58587 | 3.41904 | 15229 ft | 306 kts | 105° |
| 2026-04-28 07:43 | 52.58086 | 3.45263 | 14861 ft | 300 kts | 99° |
| 2026-04-28 07:44 | 52.57722 | 3.48608 | 14487 ft | 295 kts | 98° |
| 2026-04-28 07:44 | 52.57383 | 3.51912 | 14120 ft | 291 kts | 98° |
| 2026-04-28 07:44 | 52.57046 | 3.55166 | 13718 ft | 287 kts | 99° |
| 2026-04-28 07:44 | 52.56709 | 3.58373 | 13304 ft | 283 kts | 99° |
| 2026-04-28 07:45 | 52.56373 | 3.61545 | 12912 ft | 280 kts | 99° |
| 2026-04-28 07:45 | 52.56040 | 3.64672 | 12521 ft | 277 kts | 99° |
| 2026-04-28 07:45 | 52.55707 | 3.67775 | 12125 ft | 274 kts | 99° |
| 2026-04-28 07:45 | 52.55381 | 3.70802 | 11747 ft | 271 kts | 99° |
| 2026-04-28 07:46 | 52.55052 | 3.73851 | 11369 ft | 269 kts | 100° |
| 2026-04-28 07:46 | 52.54725 | 3.76870 | 10974 ft | 267 kts | 100° |
| 2026-04-28 07:46 | 52.54400 | 3.79864 | 10609 ft | 266 kts | 100° |
| 2026-04-28 07:46 | 52.54076 | 3.82841 | 10244 ft | 264 kts | 100° |
| 2026-04-28 07:47 | 52.53753 | 3.85798 | 9848 ft | 262 kts | 100° |
| 2026-04-28 07:47 | 52.53431 | 3.88744 | 9458 ft | 260 kts | 100° |
| 2026-04-28 07:47 | 52.53116 | 3.91618 | 9319 ft | 259 kts | 100° |
| 2026-04-28 07:47 | 52.52782 | 3.94528 | 9304 ft | 259 kts | 103° |
| 2026-04-28 07:48 | 52.52135 | 3.97322 | 9303 ft | 260 kts | 118° |
| 2026-04-28 07:48 | 52.51096 | 3.99704 | 9293 ft | 261 kts | 127° |
| 2026-04-28 07:48 | 52.49928 | 4.02017 | 9294 ft | 266 kts | 128° |
| 2026-04-28 07:48 | 52.48729 | 4.04342 | 9293 ft | 266 kts | 128° |
| 2026-04-28 07:49 | 52.47533 | 4.06668 | 9295 ft | 268 kts | 128° |
| 2026-04-28 07:49 | 52.46331 | 4.09014 | 9296 ft | 268 kts | 128° |
| 2026-04-28 07:49 | 52.45135 | 4.11353 | 9307 ft | 267 kts | 127° |
| 2026-04-28 07:49 | 52.43940 | 4.13692 | 9299 ft | 267 kts | 128° |
| 2026-04-28 07:50 | 52.42749 | 4.16025 | 9296 ft | 267 kts | 127° |
| 2026-04-28 07:50 | 52.41564 | 4.18346 | 9290 ft | 267 kts | 127° |
| 2026-04-28 07:50 | 52.40374 | 4.20675 | 9292 ft | 267 kts | 128° |
| 2026-04-28 07:50 | 52.39181 | 4.23009 | 9276 ft | 267 kts | 128° |
| 2026-04-28 07:51 | 52.37991 | 4.25333 | 9178 ft | 264 kts | 128° |
| 2026-04-28 07:51 | 52.36817 | 4.27624 | 8761 ft | 263 kts | 127° |
| 2026-04-28 07:51 | 52.35632 | 4.29935 | 8216 ft | 267 kts | 127° |
| 2026-04-28 07:51 | 52.34423 | 4.32293 | 7585 ft | 274 kts | 127° |
| 2026-04-28 07:52 | 52.33190 | 4.34696 | 6966 ft | 279 kts | 127° |
| 2026-04-28 07:52 | 52.31946 | 4.37117 | 6334 ft | 283 kts | 127° |
| 2026-04-28 07:52 | 52.30675 | 4.39586 | 5691 ft | 286 kts | 127° |
| 2026-04-28 07:52 | 52.29387 | 4.42084 | 5036 ft | 288 kts | 127° |
| 2026-04-28 07:53 | 52.28091 | 4.44596 | 4382 ft | 288 kts | 127° |
| 2026-04-28 07:53 | 52.26818 | 4.47058 | 3738 ft | 278 kts | 127° |
| 2026-04-28 07:53 | 52.25596 | 4.49416 | 3106 ft | 266 kts | 126° |
| 2026-04-28 07:53 | 52.24426 | 4.51669 | 2584 ft | 253 kts | 125° |
| 2026-04-28 07:54 | 52.23327 | 4.53800 | 2322 ft | 239 kts | 123° |
| 2026-04-28 07:54 | 52.22647 | 4.56137 | 2050 ft | 223 kts | 93° |
| 2026-04-28 07:54 | 52.22901 | 4.58544 | 1788 ft | 214 kts | 64° |
| 2026-04-28 07:54 | 52.23692 | 4.60545 | 1576 ft | 204 kts | 54° |
| 2026-04-28 07:55 | 52.24466 | 4.62337 | 1502 ft | 180 kts | 57° |
| 2026-04-28 07:55 | 52.25082 | 4.63953 | 1433 ft | 158 kts | 59° |
| 2026-04-28 07:55 | 52.25642 | 4.65393 | 1229 ft | 142 kts | 58° |
| 2026-04-28 07:55 | 52.26146 | 4.66678 | 1029 ft | 128 kts | 58° |
| 2026-04-28 07:56 | 52.26607 | 4.67866 | 840 ft | 121 kts | 56° |
| 2026-04-28 07:56 | 52.27059 | 4.69025 | 694 ft | 120 kts | 57° |
| 2026-04-28 07:56 | 52.27512 | 4.70135 | 466 ft | 112 kts | 54° |
| 2026-04-28 07:56 | 52.27936 | 4.71189 | 304 ft | 112 kts | 58° |
| 2026-04-28 07:57 | 52.28348 | 4.72275 | 166 ft | 116 kts | 57° |
| 2026-04-28 07:57 | 52.28783 | 4.73391 | 44 ft | 116 kts | 57° |
| 2026-04-28 07:57 | 52.29202 | 4.74484 | 5 ft | 103 kts | 57° |
| 2026-04-28 07:57 | 52.29414 | 4.75030 | 0 ft | 14 kts | 59° |
| 2026-04-28 07:58 | 52.29470 | 4.75181 | -1 ft | 16 kts | 59° |
| 2026-04-28 07:58 | 52.29527 | 4.75335 | 0 ft | 15 kts | 61° |
| 2026-04-28 07:58 | 52.29582 | 4.75489 | 0 ft | 15 kts | 55° |
| 2026-04-28 07:58 | 52.29641 | 4.75623 | 2 ft | 14 kts | 52° |
| 2026-04-28 07:59 | 52.29717 | 4.75736 | 0 ft | 16 kts | 33° |
| 2026-04-28 07:59 | 52.29819 | 4.75834 | 0 ft | 17 kts | 27° |
| 2026-04-28 07:59 | 52.29925 | 4.75925 | 1 ft | 17 kts | 27° |
| 2026-04-28 07:59 | 52.30011 | 4.76041 | 1 ft | 16 kts | 52° |
| 2026-04-28 08:00 | 52.30071 | 4.76194 | 1 ft | 16 kts | 58° |
| 2026-04-28 08:00 | 52.30133 | 4.76351 | 1 ft | 17 kts | 57° |
| 2026-04-28 08:00 | 52.30197 | 4.76513 | 1 ft | 17 kts | 57° |
| 2026-04-28 08:00 | 52.30260 | 4.76681 | 1 ft | 17 kts | 59° |
| 2026-04-28 08:01 | 52.30327 | 4.76860 | 1 ft | 19 kts | 59° |
| 2026-04-28 08:01 | 52.30397 | 4.77044 | 1 ft | 19 kts | 57° |
| 2026-04-28 08:01 | 52.30470 | 4.77231 | 1 ft | 20 kts | 59° |
| 2026-04-28 08:01 | 52.30541 | 4.77419 | 1 ft | 20 kts | 58° |
| 2026-04-28 08:02 | 52.30637 | 4.77575 | 1 ft | 20 kts | 21° |
| 2026-04-28 08:02 | 52.30774 | 4.77600 | 1 ft | 20 kts | 2° |
| 2026-04-28 08:02 | 52.30913 | 4.77613 | 1 ft | 20 kts | 3° |
| 2026-04-28 08:02 | 52.31053 | 4.77625 | 1 ft | 15 kts | 4° |
| 2026-04-28 08:03 | 52.31142 | 4.77575 | 1 ft | 14 kts | 297° |
| 2026-04-28 08:03 | 52.31126 | 4.77509 | 1 ft | 8 kts | 210° |
| 2026-04-28 08:03 | 52.31078 | 4.77397 | 1 ft | 15 kts | 264° |
| 2026-04-28 08:03 | 52.31077 | 4.77311 | 1 ft | 0 kts | 269° |
| 2026-04-28 08:04 | 52.31077 | 4.77310 | 1 ft | 1 kts | 269° |
| 2026-04-28 08:04 | 52.31082 | 4.77115 | 1 ft | 19 kts | 272° |
| 2026-04-28 08:04 | 52.31122 | 4.76953 | 1 ft | 15 kts | 339° |
| 2026-04-28 08:04 | 52.31216 | 4.77007 | 1 ft | 15 kts | 32° |
| 2026-04-28 08:05 | 52.31292 | 4.77059 | 1 ft | 9 kts | 355° |
| 2026-04-28 08:05 | 52.31327 | 4.77004 | 1 ft | 9 kts | 304° |
| 2026-04-28 08:05 | 52.31338 | 4.76978 | 1 ft | 0 kts | 304° |